Terminal Aerodrome Forecast
Issued by NWS

Home | Current Version | Previous Version | Text Only | Print | Product List | Glossary On
Versions: 1 2 3 4 5 6 7 8 9 10 11 12 13
000
FTUS45 KABQ 181728
TAFSAF
TAF
KSAF 181728Z 1818/1918 35009KT P6SM SCT120
     FM181900 26008KT P6SM SCT120
     FM190100 34006KT P6SM FEW250
     FM191200 36013KT P6SM SCT250=

USA.gov is the U.S. government's official web portal to all federal, state and local government web resources and services.